Time;durP1;ratioP1;P1;durP2;ratioP2;P2;SDS_P1;SDS_P2;PMS_P1;PMS_P2;Temp;Humidity;BMP_temperature;BMP_pressure;BME280_temperature;BME280_humidity;BME280_pressure;Samples;Min_cycle;Max_cycle;Signal;HPM_P1;HPM_P2
2022/09/24 00:01:23;;;;;;;2.93;2.57;;;11.00;97.30;;;;;;4996237;28;20413;-89
2022/09/24 00:03:54;;;;;;;3.53;2.30;;;11.00;97.30;;;;;;5007321;28;20431;-89
2022/09/24 00:06:21;;;;;;;3.67;2.83;;;10.90;97.30;;;;;;5013145;28;20464;-89
2022/09/24 00:08:48;;;;;;;2.60;2.30;;;10.90;97.30;;;;;;5001114;28;20451;-89
2022/09/24 00:11:15;;;;;;;3.00;2.47;;;10.80;97.30;;;;;;5004176;28;20421;-86
2022/09/24 00:13:41;;;;;;;3.53;2.80;;;10.80;97.30;;;;;;5006780;28;20420;-90
2022/09/24 00:16:12;;;;;;;5.33;2.60;;;10.80;97.30;;;;;;5003698;28;20485;-89
2022/09/24 00:18:39;;;;;;;3.93;2.77;;;10.80;97.30;;;;;;5032992;28;20186;-89
2022/09/24 00:21:18;;;;;;;2.50;2.17;;;10.70;97.30;;;;;;5014470;28;20416;-89
2022/09/24 00:23:47;;;;;;;1.83;1.73;;;10.70;97.30;;;;;;5014356;28;20463;-87
2022/09/24 00:28:57;;;;;;;5.33;2.57;;;10.70;97.30;;;;;;4994913;28;20395;-88
2022/09/24 00:31:24;;;;;;;9.53;2.50;;;10.70;97.30;;;;;;5006159;28;20413;-89
2022/09/24 00:33:51;;;;;;;3.83;2.80;;;10.60;97.30;;;;;;5002800;28;20864;-89
2022/09/24 00:36:17;;;;;;;2.60;2.40;;;10.60;97.30;;;;;;5012712;28;20849;-88
2022/09/24 00:38:43;;;;;;;1.70;1.60;;;10.50;97.30;;;;;;5012609;28;20411;-89
2022/09/24 00:41:08;;;;;;;2.47;1.93;;;10.50;97.30;;;;;;5012816;28;20416;-89
2022/09/24 00:43:37;;;;;;;2.20;2.00;;;10.40;97.30;;;;;;5010060;28;20209;-88
2022/09/24 00:46:16;;;;;;;2.30;2.00;;;10.40;97.30;;;;;;5012705;28;20201;-88
2022/09/24 00:48:44;;;;;;;5.37;3.07;;;10.40;97.30;;;;;;5012621;28;20416;-89
2022/09/24 00:51:15;;;;;;;2.53;2.20;;;10.30;97.30;;;;;;5022094;28;20421;-88
2022/09/24 00:53:42;;;;;;;8.93;4.73;;;10.30;97.30;;;;;;5006764;28;20447;-87
2022/09/24 00:56:14;;;;;;;5.00;4.70;;;10.30;97.30;;;;;;5011702;28;20523;-88
2022/09/24 00:58:41;;;;;;;3.20;3.00;;;10.30;97.30;;;;;;5013104;28;20495;-89
2022/09/24 01:01:07;;;;;;;3.50;3.30;;;10.30;97.30;;;;;;5012071;28;20934;-89
2022/09/24 01:03:39;;;;;;;4.90;2.83;;;10.20;97.30;;;;;;5004275;28;20480;-89
2022/09/24 01:06:25;;;;;;;2.53;2.40;;;10.30;97.30;;;;;;5005731;28;21966;-87
2022/09/24 01:08:51;;;;;;;3.00;2.60;;;10.20;97.30;;;;;;5004754;28;20459;-89
2022/09/24 01:11:35;;;;;;;4.23;2.70;;;10.20;97.30;;;;;;5012463;28;20460;-88
2022/09/24 01:14:10;;;;;;;1.67;1.57;;;10.20;97.30;;;;;;5012057;28;20434;-89
2022/09/24 01:17:13;;;;;;;2.90;2.37;;;10.20;97.30;;;;;;5012130;28;20578;-89
2022/09/24 01:20:07;;;;;;;2.33;2.13;;;10.20;97.30;;;;;;5016748;28;20452;-89
2022/09/24 01:23:10;;;;;;;3.27;2.77;;;10.20;97.30;;;;;;4998951;28;20986;-89
2022/09/24 01:26:04;;;;;;;7.03;2.43;;;10.20;97.30;;;;;;5008911;28;20483;-89
2022/09/24 01:28:58;;;;;;;4.10;2.70;;;10.20;97.30;;;;;;5006457;28;20477;-89
2022/09/24 01:31:53;;;;;;;4.70;2.33;;;10.10;97.30;;;;;;5012784;28;21057;-89
2022/09/24 01:34:25;;;;;;;2.90;2.60;;;10.10;97.30;;;;;;5003416;28;20508;-89
2022/09/24 01:36:54;;;;;;;3.20;2.83;;;10.00;97.30;;;;;;5010044;28;20449;-89
2022/09/24 01:39:20;;;;;;;2.90;2.70;;;10.00;97.30;;;;;;5000052;28;21002;-89
2022/09/24 01:41:47;;;;;;;3.83;2.00;;;10.00;97.30;;;;;;5011415;28;20456;-88
2022/09/24 01:44:17;;;;;;;3.33;2.90;;;10.00;97.30;;;;;;5003900;28;20405;-88
2022/09/24 01:46:42;;;;;;;2.50;2.20;;;10.00;97.30;;;;;;5007401;28;20547;-88
2022/09/24 01:49:08;;;;;;;3.97;3.23;;;10.00;97.30;;;;;;5011436;28;21188;-89
2022/09/24 01:51:43;;;;;;;2.00;1.90;;;10.00;97.30;;;;;;5011447;28;20170;-89
2022/09/24 01:54:26;;;;;;;4.93;2.07;;;9.90;97.30;;;;;;5011237;28;20185;-89
2022/09/24 01:57:08;;;;;;;2.43;2.23;;;9.90;97.30;;;;;;5027593;28;20927;-89
2022/09/24 01:59:39;;;;;;;2.30;2.10;;;10.00;97.30;;;;;;5009134;28;20934;-89
2022/09/24 02:02:27;;;;;;;3.03;2.33;;;9.90;97.30;;;;;;5002599;28;20539;-89
2022/09/24 02:05:13;;;;;;;4.93;2.40;;;10.00;97.30;;;;;;5010658;28;20436;-88
2022/09/24 02:08:02;;;;;;;5.87;2.70;;;10.00;97.30;;;;;;5011175;28;20416;-88
2022/09/24 02:10:31;;;;;;;2.17;1.93;;;10.00;97.30;;;;;;5010739;28;20420;-88
2022/09/24 02:13:01;;;;;;;3.37;3.20;;;10.00;97.30;;;;;;4998016;28;20500;-88
2022/09/24 02:15:31;;;;;;;2.73;1.83;;;10.00;97.30;;;;;;5011348;28;20978;-89
2022/09/24 02:18:01;;;;;;;4.10;3.13;;;10.00;97.30;;;;;;5011186;28;20423;-89
2022/09/24 02:20:29;;;;;;;1.97;1.90;;;10.00;97.30;;;;;;4998546;28;20436;-88
2022/09/24 02:22:56;;;;;;;2.17;2.00;;;10.00;97.30;;;;;;5010860;28;20459;-88
2022/09/24 02:25:33;;;;;;;3.57;2.90;;;10.00;97.30;;;;;;5009955;28;20927;-89
2022/09/24 02:27:59;;;;;;;11.20;4.57;;;10.00;97.30;;;;;;5012283;28;20421;-89
2022/09/24 02:30:25;;;;;;;2.83;2.33;;;10.00;97.30;;;;;;4998467;28;20432;-89
2022/09/24 02:32:53;;;;;;;2.33;1.63;;;9.90;97.30;;;;;;5012111;28;20192;-89
2022/09/24 02:35:19;;;;;;;2.30;1.77;;;9.90;97.30;;;;;;5009768;28;20204;-89
2022/09/24 02:37:44;;;;;;;4.00;3.53;;;9.90;97.30;;;;;;5010924;28;20504;-89
2022/09/24 02:40:14;;;;;;;2.27;2.07;;;9.90;97.30;;;;;;5010637;28;20193;-88
2022/09/24 02:42:42;;;;;;;2.00;1.90;;;9.90;97.30;;;;;;5010998;28;20215;-89
2022/09/24 02:45:10;;;;;;;1.77;1.67;;;9.90;97.30;;;;;;5010653;28;20444;-89
2022/09/24 02:47:37;;;;;;;2.90;2.50;;;9.90;97.30;;;;;;5010971;28;20439;-89
2022/09/24 02:50:03;;;;;;;1.80;1.70;;;9.90;97.30;;;;;;5011852;28;20416;-89
2022/09/24 02:52:29;;;;;;;4.97;2.13;;;9.90;97.30;;;;;;5014521;28;20494;-89
2022/09/24 02:54:54;;;;;;;3.57;2.47;;;9.90;97.30;;;;;;5014706;28;20822;-89
2022/09/24 02:57:22;;;;;;;2.80;1.73;;;9.90;97.30;;;;;;5014486;28;20173;-89
2022/09/24 02:59:48;;;;;;;2.43;2.27;;;9.90;97.30;;;;;;5001251;28;20169;-89
2022/09/24 03:02:14;;;;;;;4.50;2.57;;;9.90;97.30;;;;;;5014115;28;20466;-89
2022/09/24 03:04:39;;;;;;;6.13;3.47;;;9.90;97.30;;;;;;5010817;28;20257;-89
2022/09/24 03:07:04;;;;;;;3.73;1.73;;;9.90;97.30;;;;;;5006591;28;20407;-88
2022/09/24 03:09:30;;;;;;;1.60;1.50;;;9.90;97.30;;;;;;5021452;28;20204;-89
2022/09/24 03:11:59;;;;;;;2.10;1.70;;;9.90;97.30;;;;;;5013928;28;20173;-89
2022/09/24 03:14:24;;;;;;;2.00;1.87;;;9.90;97.30;;;;;;5013952;28;20594;-90
2022/09/24 03:16:50;;;;;;;2.63;2.43;;;9.90;97.30;;;;;;5014321;28;20489;-89
2022/09/24 03:19:15;;;;;;;3.70;3.40;;;9.80;97.30;;;;;;5013902;28;20231;-89
2022/09/24 03:21:41;;;;;;;2.27;2.07;;;9.80;97.30;;;;;;5014027;28;20664;-89
2022/09/24 03:24:06;;;;;;;5.23;2.50;;;9.80;97.30;;;;;;5014945;28;20178;-89
2022/09/24 03:26:32;;;;;;;2.33;2.17;;;9.80;97.30;;;;;;5013693;28;20232;-89
2022/09/24 03:28:57;;;;;;;2.00;1.87;;;9.80;97.30;;;;;;5015080;28;20656;-89
2022/09/24 03:31:23;;;;;;;2.87;2.30;;;9.80;97.30;;;;;;5012328;28;20212;-89
2022/09/24 03:33:48;;;;;;;1.63;1.53;;;9.80;97.30;;;;;;5013595;28;20189;-88
2022/09/24 03:36:23;;;;;;;1.40;1.30;;;9.80;97.30;;;;;;5013824;28;20232;-88
2022/09/24 03:38:55;;;;;;;1.87;1.77;;;9.80;97.30;;;;;;5009415;28;20685;-90
2022/09/24 03:41:21;;;;;;;3.57;3.20;;;9.80;97.30;;;;;;4996051;28;20440;-88
2022/09/24 03:43:47;;;;;;;4.30;2.60;;;9.80;97.30;;;;;;5007428;28;20457;-88
2022/09/24 03:46:14;;;;;;;1.90;1.63;;;9.80;97.30;;;;;;5005798;28;20446;-89
2022/09/24 03:48:40;;;;;;;1.97;1.90;;;9.80;97.30;;;;;;5013490;28;20556;-89
2022/09/24 03:51:11;;;;;;;1.90;1.80;;;9.80;97.30;;;;;;5013419;28;20495;-88
2022/09/24 03:53:38;;;;;;;2.33;2.13;;;9.80;97.30;;;;;;5014548;28;20427;-89
2022/09/24 03:56:05;;;;;;;11.40;3.47;;;9.90;97.30;;;;;;5014627;28;20531;-89
2022/09/24 03:58:34;;;;;;;89.73;4.03;;;9.90;97.30;;;;;;5013415;28;20436;-89
2022/09/24 04:01:00;;;;;;;1.40;1.30;;;9.90;97.30;;;;;;4999749;28;20429;-88
2022/09/24 04:03:25;;;;;;;1.67;1.57;;;9.90;97.30;;;;;;4997168;28;20836;-89
2022/09/24 04:05:51;;;;;;;2.50;2.30;;;9.90;97.30;;;;;;4993819;28;20201;-88
2022/09/24 04:08:18;;;;;;;1.50;1.30;;;9.90;97.30;;;;;;5012819;28;20671;-88
2022/09/24 04:10:50;;;;;;;2.50;2.30;;;9.90;97.30;;;;;;5013210;28;20207;-88
2022/09/24 04:13:17;;;;;;;2.83;2.17;;;9.90;97.30;;;;;;5005986;28;20429;-88
2022/09/24 04:15:43;;;;;;;2.53;2.33;;;9.90;97.30;;;;;;5001202;28;20476;-88
2022/09/24 04:18:08;;;;;;;4.40;2.40;;;9.90;97.30;;;;;;5034406;28;20959;-90
2022/09/24 04:20:35;;;;;;;4.13;2.70;;;9.90;97.30;;;;;;5007577;28;20197;-89
2022/09/24 04:23:00;;;;;;;1.33;1.23;;;9.90;97.30;;;;;;5014201;28;20850;-88
2022/09/24 04:25:29;;;;;;;2.40;2.20;;;9.90;97.30;;;;;;5012483;28;20570;-89
2022/09/24 04:27:57;;;;;;;2.27;1.93;;;9.90;97.30;;;;;;5012859;28;20184;-89
2022/09/24 04:30:24;;;;;;;2.80;2.23;;;9.80;97.30;;;;;;5010686;28;20484;-89
2022/09/24 04:32:51;;;;;;;2.20;2.00;;;9.80;97.30;;;;;;5008343;28;20788;-89
2022/09/24 04:35:18;;;;;;;5.07;1.73;;;9.80;97.30;;;;;;5038062;28;20443;-89
2022/09/24 04:37:44;;;;;;;7.23;2.20;;;9.80;97.30;;;;;;5013958;28;20424;-89
2022/09/24 04:40:11;;;;;;;2.40;2.20;;;9.70;97.30;;;;;;5009202;28;20427;-89
2022/09/24 04:42:40;;;;;;;1.50;1.40;;;9.70;97.30;;;;;;5011561;28;20464;-89
2022/09/24 04:45:07;;;;;;;3.30;1.83;;;9.70;97.30;;;;;;5012549;28;20441;-89
2022/09/24 04:47:34;;;;;;;2.40;2.03;;;9.70;97.30;;;;;;5012127;28;20417;-89
2022/09/24 04:50:01;;;;;;;1.50;1.40;;;9.70;97.30;;;;;;5012764;28;21073;-88
2022/09/24 04:52:28;;;;;;;3.77;2.20;;;9.70;97.30;;;;;;5006036;28;20427;-89
2022/09/24 04:54:56;;;;;;;3.53;2.30;;;9.60;97.30;;;;;;5011577;28;20436;-89
2022/09/24 04:57:22;;;;;;;3.00;2.13;;;9.60;97.30;;;;;;5005919;28;20535;-89
2022/09/24 04:59:48;;;;;;;2.33;2.07;;;9.60;97.30;;;;;;5011534;28;20447;-88
2022/09/24 05:02:18;;;;;;;1.80;1.70;;;9.60;97.30;;;;;;5014363;28;20543;-89
2022/09/24 05:04:44;;;;;;;3.90;1.63;;;9.60;97.30;;;;;;5011646;28;20190;-89
2022/09/24 05:07:10;;;;;;;5.40;2.57;;;9.60;97.30;;;;;;5016486;28;20423;-89
2022/09/24 05:09:36;;;;;;;3.73;1.73;;;9.60;97.30;;;;;;5012945;28;20674;-89
2022/09/24 05:12:02;;;;;;;2.23;2.03;;;9.60;97.30;;;;;;5013398;28;20934;-89
2022/09/24 05:14:29;;;;;;;1.90;1.83;;;9.50;97.30;;;;;;5011003;28;20189;-89
2022/09/24 05:16:54;;;;;;;12.60;2.50;;;9.50;97.30;;;;;;5011757;28;20428;-89
2022/09/24 05:19:20;;;;;;;4.63;2.27;;;9.50;97.30;;;;;;5006979;28;20428;-89
2022/09/24 05:21:46;;;;;;;2.13;1.97;;;9.40;97.30;;;;;;5011692;28;20189;-89
2022/09/24 05:24:11;;;;;;;5.07;3.33;;;9.40;97.30;;;;;;5013643;28;20797;-89
2022/09/24 05:29:21;;;;;;;2.17;1.63;;;9.40;97.30;;;;;;5013239;28;20598;-88
2022/09/24 05:31:47;;;;;;;2.33;1.93;;;9.30;97.30;;;;;;5009513;28;20499;-89
2022/09/24 05:34:13;;;;;;;3.23;2.80;;;9.30;97.30;;;;;;5010400;28;20644;-89
2022/09/24 05:36:39;;;;;;;3.27;2.60;;;9.30;97.30;;;;;;5000066;28;20208;-88
2022/09/24 05:39:05;;;;;;;2.13;1.90;;;9.30;97.30;;;;;;5011629;28;20931;-89
2022/09/24 05:41:30;;;;;;;2.27;1.63;;;9.30;97.30;;;;;;5011006;28;20863;-89
2022/09/24 05:43:57;;;;;;;4.20;2.20;;;9.30;97.30;;;;;;4998951;28;20487;-88
2022/09/24 05:46:23;;;;;;;2.73;2.57;;;9.30;97.30;;;;;;5011133;28;20185;-88
2022/09/24 05:48:48;;;;;;;7.90;3.03;;;9.30;97.30;;;;;;5011293;28;20420;-89
2022/09/24 05:51:14;;;;;;;2.10;1.70;;;9.30;97.30;;;;;;5012319;28;21001;-88
2022/09/24 05:53:39;;;;;;;1.63;1.53;;;9.30;97.30;;;;;;5018595;28;20200;-89
2022/09/24 05:56:05;;;;;;;2.03;1.93;;;9.30;97.30;;;;;;4998138;28;20715;-91
2022/09/24 05:58:31;;;;;;;2.17;1.80;;;9.30;97.30;;;;;;5013867;28;20664;-87
2022/09/24 06:00:58;;;;;;;3.30;1.90;;;9.30;97.30;;;;;;5011544;28;20283;-89
2022/09/24 06:03:24;;;;;;;3.07;2.30;;;9.30;97.30;;;;;;5005559;28;20201;-89
2022/09/24 06:05:50;;;;;;;3.33;2.27;;;9.30;97.30;;;;;;5011217;28;20551;-88
2022/09/24 06:08:17;;;;;;;3.43;2.33;;;9.40;97.30;;;;;;5011046;28;20229;-88
2022/09/24 06:10:46;;;;;;;3.13;2.10;;;9.40;97.30;;;;;;5012160;28;20449;-89
2022/09/24 06:13:13;;;;;;;1.73;1.40;;;9.40;97.30;;;;;;5011482;28;20412;-90
2022/09/24 06:15:41;;;;;;;1.23;1.20;;;9.40;97.30;;;;;;5008345;28;20482;-89
2022/09/24 06:18:08;;;;;;;1.90;1.80;;;9.40;97.30;;;;;;5012504;28;20461;-89
2022/09/24 06:20:34;;;;;;;10.03;3.20;;;9.50;97.30;;;;;;5011281;28;20427;-88
2022/09/24 06:23:01;;;;;;;2.80;2.60;;;9.50;97.30;;;;;;5015205;28;20448;-88
2022/09/24 06:25:27;;;;;;;1.90;1.80;;;9.50;97.30;;;;;;5011974;28;20284;-88
2022/09/24 06:28:00;;;;;;;5.10;3.40;;;9.60;97.30;;;;;;5015485;28;20794;-89
2022/09/24 06:30:28;;;;;;;3.97;2.73;;;9.60;97.30;;;;;;5028417;28;20415;-88
2022/09/24 06:32:54;;;;;;;2.47;2.13;;;9.70;97.30;;;;;;5014884;28;21077;-87
2022/09/24 06:35:19;;;;;;;4.10;2.20;;;9.70;97.30;;;;;;5014634;28;20446;-88
2022/09/24 06:37:48;;;;;;;3.53;3.10;;;9.70;97.30;;;;;;5013848;28;20796;-89
2022/09/24 06:40:14;;;;;;;3.10;2.90;;;9.80;97.30;;;;;;5013850;28;20177;-89
2022/09/24 06:42:39;;;;;;;7.37;3.83;;;9.80;97.30;;;;;;5015773;28;20459;-88
2022/09/24 06:45:05;;;;;;;5.37;4.67;;;9.90;97.30;;;;;;5025941;28;20439;-88
2022/09/24 06:47:31;;;;;;;5.50;3.60;;;9.90;97.30;;;;;;5013344;28;20230;-89
2022/09/24 06:49:56;;;;;;;2.80;2.60;;;9.90;97.30;;;;;;5013185;28;20428;-91
2022/09/24 06:52:22;;;;;;;1.93;1.83;;;10.00;97.30;;;;;;5004191;28;20181;-89
2022/09/24 06:54:47;;;;;;;2.53;1.97;;;10.00;97.30;;;;;;5024990;28;20575;-88
2022/09/24 06:57:14;;;;;;;4.83;2.43;;;10.10;97.30;;;;;;5004077;28;20249;-88
2022/09/24 06:59:40;;;;;;;6.20;3.33;;;10.10;97.30;;;;;;5011759;28;20268;-89
2022/09/24 07:02:07;;;;;;;3.97;2.50;;;10.20;97.30;;;;;;5003482;28;20594;-88
2022/09/24 07:04:32;;;;;;;5.07;3.00;;;10.20;97.30;;;;;;5011565;28;20791;-87
2022/09/24 07:09:42;;;;;;;3.40;2.70;;;10.40;97.30;;;;;;5012551;28;20187;-89
2022/09/24 07:12:07;;;;;;;4.60;2.97;;;10.40;97.30;;;;;;5014329;28;20814;-88
2022/09/24 07:14:33;;;;;;;5.67;3.80;;;10.50;97.30;;;;;;5010445;28;20174;-89
2022/09/24 07:16:59;;;;;;;6.40;3.53;;;10.70;97.30;;;;;;5007754;28;20177;-89
2022/09/24 07:19:24;;;;;;;2.20;2.03;;;10.70;97.30;;;;;;5012636;28;20181;-89
2022/09/24 07:21:49;;;;;;;3.60;3.40;;;10.80;97.30;;;;;;5012926;28;20216;-89
2022/09/24 07:24:15;;;;;;;4.13;2.07;;;10.90;97.30;;;;;;5013591;28;20523;-89
2022/09/24 07:26:41;;;;;;;2.23;2.03;;;11.00;97.30;;;;;;5014856;28;20225;-89
2022/09/24 07:29:06;;;;;;;2.67;1.93;;;11.10;97.30;;;;;;5021549;28;20672;-88
2022/09/24 07:31:32;;;;;;;2.30;1.90;;;11.20;97.30;;;;;;5019109;28;20214;-88
2022/09/24 07:33:58;;;;;;;4.90;2.73;;;11.30;97.30;;;;;;5003435;28;20215;-89
2022/09/24 07:36:23;;;;;;;5.70;3.47;;;11.40;97.30;;;;;;5013098;28;20586;-88
2022/09/24 07:38:49;;;;;;;4.03;2.17;;;11.50;97.30;;;;;;5017842;28;20184;-89
2022/09/24 07:41:14;;;;;;;3.73;2.23;;;11.50;97.30;;;;;;5007152;28;20185;-90
2022/09/24 07:43:42;;;;;;;3.60;2.50;;;11.60;97.30;;;;;;5002289;28;20240;-89
2022/09/24 07:46:08;;;;;;;4.40;1.97;;;11.70;97.30;;;;;;5013101;28;20193;-88
2022/09/24 07:48:33;;;;;;;5.93;2.50;;;11.80;97.30;;;;;;5014176;28;20491;-89
2022/09/24 07:50:59;;;;;;;3.77;2.30;;;11.80;97.30;;;;;;5007924;28;20176;-89
2022/09/24 07:53:24;;;;;;;2.67;1.90;;;11.90;97.30;;;;;;5008310;28;20183;-90
2022/09/24 07:55:51;;;;;;;2.40;2.20;;;12.00;97.30;;;;;;5000637;28;20888;-89
2022/09/24 07:58:17;;;;;;;3.10;2.93;;;12.00;97.30;;;;;;5011483;28;20185;-89
2022/09/24 08:00:42;;;;;;;3.10;2.20;;;12.10;97.30;;;;;;5011304;28;20817;-90
2022/09/24 08:03:08;;;;;;;2.27;2.13;;;12.10;97.30;;;;;;5009223;28;20212;-89
2022/09/24 08:05:34;;;;;;;3.27;2.07;;;12.20;97.30;;;;;;5009117;28;20251;-89
2022/09/24 08:07:59;;;;;;;2.60;2.33;;;12.30;97.30;;;;;;5011854;28;20177;-90
2022/09/24 08:10:29;;;;;;;2.53;1.83;;;12.30;97.30;;;;;;5012514;28;20173;-89
2022/09/24 08:13:00;;;;;;;2.13;1.97;;;12.40;97.30;;;;;;5007593;28;20182;-89
2022/09/24 08:15:25;;;;;;;2.40;2.07;;;12.50;97.30;;;;;;5009819;28;20448;-89
2022/09/24 08:17:51;;;;;;;1.53;1.53;;;12.50;97.30;;;;;;5006175;28;20460;-89
2022/09/24 08:20:17;;;;;;;2.40;1.67;;;12.60;97.30;;;;;;5004516;28;20591;-89
2022/09/24 08:22:42;;;;;;;2.90;2.13;;;12.70;97.30;;;;;;5011154;28;20452;-89
2022/09/24 08:25:08;;;;;;;2.30;1.83;;;12.70;97.30;;;;;;5010711;28;20235;-89
2022/09/24 08:27:35;;;;;;;6.23;1.80;;;12.80;97.30;;;;;;5003914;28;20200;-89
2022/09/24 08:30:02;;;;;;;2.80;2.00;;;12.80;97.30;;;;;;5011258;28;20551;-90
2022/09/24 08:32:30;;;;;;;2.77;2.00;;;12.90;97.30;;;;;;5010745;28;20434;-88
2022/09/24 08:34:55;;;;;;;2.40;2.20;;;13.00;97.30;;;;;;5010989;28;20699;-90
2022/09/24 08:37:21;;;;;;;4.60;2.60;;;13.00;97.30;;;;;;5010666;28;20939;-89
2022/09/24 08:39:47;;;;;;;1.87;1.77;;;13.00;97.30;;;;;;5010948;28;20213;-89
2022/09/24 08:42:27;;;;;;;4.93;2.33;;;13.10;97.30;;;;;;5010794;28;20278;-89
2022/09/24 08:47:59;;;;;;;1.63;1.57;;;13.20;97.30;;;;;;5002372;28;20424;-89
2022/09/24 08:50:31;;;;;;;3.40;1.97;;;13.30;97.30;;;;;;5027222;28;20420;-90
2022/09/24 08:53:11;;;;;;;6.00;2.63;;;13.40;97.30;;;;;;4994228;28;21085;-89
2022/09/24 08:55:42;;;;;;;1.77;1.57;;;13.50;97.30;;;;;;5010402;28;20471;-89
2022/09/24 08:58:30;;;;;;;3.23;2.40;;;13.60;97.30;;;;;;4997972;28;20447;-89
2022/09/24 09:01:11;;;;;;;4.07;2.70;;;13.70;97.30;;;;;;5010726;28;20435;-89
2022/09/24 09:04:03;;;;;;;6.07;3.07;;;13.80;97.30;;;;;;5000111;28;20463;-89
2022/09/24 09:07:03;;;;;;;2.70;1.83;;;13.90;97.30;;;;;;5010459;28;20432;-89
2022/09/24 09:09:43;;;;;;;5.43;2.60;;;14.00;97.30;;;;;;5011824;28;20443;-89
2022/09/24 09:12:18;;;;;;;7.03;2.83;;;14.10;97.30;;;;;;5010268;28;20424;-89
2022/09/24 09:14:55;;;;;;;3.43;2.87;;;14.20;97.30;;;;;;5008638;28;20481;-89
2022/09/24 09:17:50;;;;;;;3.70;3.00;;;14.40;97.30;;;;;;5010050;28;20563;-89
2022/09/24 09:20:41;;;;;;;3.30;3.00;;;14.40;97.30;;;;;;5010308;28;20416;-89
2022/09/24 09:23:20;;;;;;;3.60;1.77;;;14.50;97.30;;;;;;5000309;28;20462;-89
2022/09/24 09:25:55;;;;;;;3.50;2.37;;;14.50;97.30;;;;;;5009242;28;20463;-88
2022/09/24 09:28:21;;;;;;;25.57;2.83;;;14.60;97.30;;;;;;4997983;28;20424;-89
2022/09/24 09:30:55;;;;;;;2.30;1.90;;;14.60;97.30;;;;;;5009943;28;20420;-89
2022/09/24 09:33:43;;;;;;;4.03;2.53;;;14.70;97.30;;;;;;4997485;28;20188;-89
2022/09/24 09:36:30;;;;;;;3.10;2.97;;;14.80;97.30;;;;;;5009376;28;21001;-89
2022/09/24 09:39:07;;;;;;;2.17;1.90;;;14.90;97.30;;;;;;5005984;28;20405;-89
2022/09/24 09:41:56;;;;;;;6.13;2.23;;;15.00;97.30;;;;;;5003864;28;20515;-89
2022/09/24 09:44:25;;;;;;;4.33;2.57;;;15.10;97.30;;;;;;5009600;28;20420;-89
2022/09/24 09:47:20;;;;;;;3.20;2.27;;;15.10;97.30;;;;;;5009619;28;20804;-89
2022/09/24 09:49:50;;;;;;;7.23;3.47;;;15.20;97.30;;;;;;5005620;28;20478;-88
2022/09/24 09:52:19;;;;;;;3.30;1.93;;;15.30;97.30;;;;;;5015200;28;20443;-89
2022/09/24 09:54:45;;;;;;;2.03;1.70;;;15.40;97.30;;;;;;5009413;28;20416;-89
2022/09/24 09:57:17;;;;;;;2.20;2.00;;;15.50;97.30;;;;;;5009862;28;20470;-88
2022/09/24 09:59:52;;;;;;;4.67;3.00;;;15.60;97.30;;;;;;5005889;28;20197;-88
2022/09/24 10:02:42;;;;;;;7.10;2.33;;;15.80;97.30;;;;;;5001204;28;20455;-89
2022/09/24 10:05:20;;;;;;;4.30;2.57;;;15.90;96.50;;;;;;5009642;28;20436;-89
2022/09/24 10:14:15;;;;;;;1.63;1.60;;;16.40;95.30;;;;;;5009860;28;20424;-89
2022/09/24 10:16:53;;;;;;;2.00;1.93;;;16.60;94.40;;;;;;5009108;28;20448;-88
2022/09/24 10:19:24;;;;;;;1.57;1.57;;;16.70;94.50;;;;;;5005027;28;20428;-86
2022/09/24 10:21:56;;;;;;;2.50;2.30;;;16.80;94.50;;;;;;5001700;28;20450;-88
2022/09/24 10:24:25;;;;;;;1.30;1.20;;;16.90;94.60;;;;;;5009067;28;20416;-85
2022/09/24 10:26:54;;;;;;;4.10;2.30;;;17.00;94.40;;;;;;5008967;28;20508;-85
2022/09/24 10:32:22;;;;;;;2.47;1.90;;;17.20;92.50;;;;;;5010373;28;20442;-87
2022/09/24 10:35:19;;;;;;;2.90;1.43;;;17.40;92.80;;;;;;5009394;28;20479;-87
2022/09/24 10:37:53;;;;;;;5.13;2.90;;;17.50;93.00;;;;;;5015759;28;20521;-88
2022/09/24 10:40:23;;;;;;;1.87;1.77;;;17.60;91.90;;;;;;5009130;28;20962;-89
2022/09/24 10:43:03;;;;;;;2.60;1.67;;;17.70;91.80;;;;;;5010361;28;20460;-89
2022/09/24 10:45:56;;;;;;;1.23;1.23;;;17.80;91.40;;;;;;5008761;28;20443;-88
2022/09/24 10:48:40;;;;;;;3.10;1.97;;;17.90;91.00;;;;;;5010109;28;20948;-88
2022/09/24 10:51:26;;;;;;;2.57;2.13;;;18.10;90.40;;;;;;5009556;28;20499;-89
2022/09/24 10:54:04;;;;;;;1.67;1.67;;;18.20;89.70;;;;;;4997941;28;20420;-89
2022/09/24 10:56:40;;;;;;;2.23;1.83;;;18.40;89.80;;;;;;5011637;28;20436;-89
2022/09/24 10:59:31;;;;;;;3.00;2.70;;;18.60;89.30;;;;;;5008791;28;20420;-88
2022/09/24 11:02:12;;;;;;;4.80;2.13;;;18.60;88.70;;;;;;5010376;28;20486;-89
2022/09/24 11:04:54;;;;;;;1.30;1.20;;;18.70;89.40;;;;;;5010236;28;20412;-88
2022/09/24 11:07:55;;;;;;;2.07;1.80;;;18.80;89.90;;;;;;5007467;28;20601;-89
2022/09/24 11:10:48;;;;;;;;;;;;;;;;;;;;;
2022/09/24 11:13:43;;;;;;;3.60;2.03;;;19.20;88.10;;;;;;5012876;28;20420;-88
2022/09/24 11:16:12;;;;;;;1.70;1.60;;;19.20;87.50;;;;;;4998941;28;20447;-84
2022/09/24 11:19:04;;;;;;;3.30;1.70;;;19.20;86.70;;;;;;5012278;28;20419;-89
2022/09/24 11:21:56;;;;;;;3.37;1.90;;;19.20;86.70;;;;;;5017732;28;20431;-89
2022/09/24 11:24:40;;;;;;;4.30;3.90;;;19.30;86.10;;;;;;5011694;28;20420;-89
2022/09/24 11:27:32;;;;;;;1.47;1.37;;;19.40;86.00;;;;;;5012295;28;20459;-88
2022/09/24 11:30:26;;;;;;;1.80;1.47;;;19.50;86.30;;;;;;5001412;28;20416;-85
2022/09/24 11:32:55;;;;;;;1.43;1.40;;;19.50;85.80;;;;;;5013059;28;20428;-89
2022/09/24 11:35:34;;;;;;;1.87;1.73;;;19.50;85.50;;;;;;5012648;28;20447;-88
2022/09/24 11:38:22;;;;;;;3.40;1.67;;;19.50;85.90;;;;;;5012678;28;20424;-89
2022/09/24 11:44:22;;;;;;;6.10;2.40;;;19.40;85.70;;;;;;5009614;28;20869;-88
2022/09/24 11:47:25;;;;;;;1.50;1.40;;;19.40;84.20;;;;;;5012588;28;20470;-88
2022/09/24 11:50:04;;;;;;;2.57;2.37;;;19.40;85.00;;;;;;5012819;28;20938;-89
2022/09/24 11:52:43;;;;;;;1.60;1.40;;;19.40;84.20;;;;;;5008829;28;20424;-85
2022/09/24 11:55:33;;;;;;;1.93;1.40;;;19.50;84.80;;;;;;5010916;28;20490;-88
2022/09/24 11:58:24;;;;;;;3.13;1.53;;;19.70;85.00;;;;;;5010835;28;20451;-86
2022/09/24 12:01:02;;;;;;;1.20;1.20;;;19.90;84.70;;;;;;5012749;28;20783;-87
2022/09/24 12:04:04;;;;;;;2.03;1.83;;;20.10;85.80;;;;;;5020636;28;20535;-88
2022/09/24 12:06:35;;;;;;;4.03;2.20;;;20.20;85.60;;;;;;5022054;28;20522;-88
2022/09/24 12:09:16;;;;;;;1.50;1.50;;;20.20;84.40;;;;;;5009141;28;20930;-88
2022/09/24 12:11:48;;;;;;;1.30;1.20;;;20.20;83.70;;;;;;4996878;28;20428;-88
2022/09/24 12:14:24;;;;;;;1.80;1.80;;;20.10;83.30;;;;;;5013107;28;20417;-88
2022/09/24 12:16:55;;;;;;;1.53;1.43;;;20.10;85.20;;;;;;5015552;28;20454;-89
2022/09/24 12:19:30;;;;;;;3.40;1.90;;;20.30;85.30;;;;;;5019701;28;20404;-89
2022/09/24 12:22:08;;;;;;;2.60;1.93;;;20.50;84.40;;;;;;5021434;28;20458;-88
2022/09/24 12:24:35;;;;;;;1.87;1.53;;;20.70;83.60;;;;;;5007046;28;20419;-89
2022/09/24 12:27:33;;;;;;;1.97;1.87;;;20.90;83.70;;;;;;5017371;28;20464;-89
2022/09/24 12:34:13;;;;;;;2.50;1.50;;;20.70;82.60;;;;;;5018391;28;20542;-88
2022/09/24 12:37:17;;;;;;;6.13;1.80;;;20.50;82.90;;;;;;5060467;22;20499;-88
2022/09/24 12:40:27;;;;;;;2.80;1.60;;;20.20;82.70;;;;;;5049706;28;20415;-87
2022/09/24 12:43:18;;;;;;;2.20;2.10;;;20.00;83.30;;;;;;5035052;28;20462;-87
2022/09/24 12:45:44;;;;;;;1.70;1.40;;;19.90;83.40;;;;;;5037146;28;20656;-88
2022/09/24 12:48:15;;;;;;;2.80;1.10;;;19.80;84.60;;;;;;5036051;28;20434;-86
2022/09/24 12:50:44;;;;;;;1.70;1.60;;;19.70;84.40;;;;;;5041998;28;20403;-88
2022/09/24 12:53:26;;;;;;;2.13;1.97;;;19.70;85.20;;;;;;5035091;28;20963;-88
2022/09/24 12:56:03;;;;;;;2.63;2.03;;;19.70;85.20;;;;;;5038444;28;20569;-88
2022/09/24 12:58:40;;;;;;;3.00;1.70;;;19.70;84.60;;;;;;5042164;28;20433;-88
2022/09/24 13:01:26;;;;;;;2.07;1.70;;;19.60;84.60;;;;;;5054559;28;21084;-88
2022/09/24 13:04:02;;;;;;;3.60;1.87;;;19.50;83.60;;;;;;5037909;28;20450;-89
2022/09/24 13:06:34;;;;;;;1.30;1.20;;;19.50;83.80;;;;;;5031946;28;20443;-89
2022/09/24 13:09:00;;;;;;;1.53;1.37;;;19.40;84.30;;;;;;5031695;28;20427;-91
2022/09/24 13:11:28;;;;;;;1.70;1.60;;;19.40;84.90;;;;;;5034096;28;20419;-89
2022/09/24 13:14:12;;;;;;;3.50;1.70;;;19.40;85.50;;;;;;5039616;28;20423;-90
2022/09/24 13:16:39;;;;;;;1.50;1.40;;;19.40;85.50;;;;;;5031735;28;21023;-89
2022/09/24 13:19:24;;;;;;;1.73;1.40;;;19.40;85.00;;;;;;5036140;28;20949;-89
2022/09/24 13:21:55;;;;;;;1.40;1.20;;;19.40;85.70;;;;;;5041279;28;20934;-89
2022/09/24 13:24:46;;;;;;;1.53;1.20;;;19.60;86.00;;;;;;5032129;28;20514;-89
2022/09/24 13:27:43;;;;;;;2.50;2.00;;;19.80;85.60;;;;;;5026119;28;20923;-89
2022/09/24 13:30:19;;;;;;;2.30;1.37;;;20.10;85.80;;;;;;5037719;28;20417;-89
2022/09/24 13:32:57;;;;;;;2.00;1.53;;;20.20;85.90;;;;;;5029611;28;20939;-89
2022/09/24 13:35:28;;;;;;;1.73;1.63;;;20.20;85.30;;;;;;5034177;28;20438;-89
2022/09/24 13:38:07;;;;;;;1.83;1.70;;;20.20;84.50;;;;;;5034689;28;20426;-89
2022/09/24 13:40:38;;;;;;;2.17;1.60;;;20.10;84.60;;;;;;5039561;28;20540;-88
2022/09/24 13:43:14;;;;;;;1.87;1.53;;;20.00;85.60;;;;;;5025539;28;20462;-90
2022/09/24 13:45:43;;;;;;;1.43;1.40;;;19.90;85.40;;;;;;5034193;28;20956;-88